Time;durP1;ratioP1;P1;durP2;ratioP2;P2;SDS_P1;SDS_P2;PMS_P1;PMS_P2;Temp;Humidity;BMP_temperature;BMP_pressure;BME280_temperature;BME280_humidity;BME280_pressure;Samples;Min_cycle;Max_cycle;Signal;HPM_P1;HPM_P2
2022/03/14 00:02:18;;;;;;;1.43;1.10;;;11.60;92.90;;;;;;5042893;28;20956;-72
2022/03/14 00:04:47;;;;;;;1.47;1.00;;;11.60;93.70;;;;;;5047830;28;20827;-73
2022/03/14 00:07:15;;;;;;;1.50;1.03;;;11.60;93.00;;;;;;5039683;28;20454;-72
2022/03/14 00:09:41;;;;;;;1.47;1.10;;;11.60;93.50;;;;;;5035938;28;20510;-72
2022/03/14 00:12:08;;;;;;;1.47;1.10;;;11.60;94.10;;;;;;5048163;28;20829;-73
2022/03/14 00:14:35;;;;;;;1.47;1.10;;;11.60;93.90;;;;;;5049608;28;20509;-73
2022/03/14 00:17:09;;;;;;;1.47;1.10;;;11.50;93.80;;;;;;5048614;28;20462;-73
2022/03/14 00:19:37;;;;;;;1.40;1.00;;;11.60;93.20;;;;;;5035408;28;20486;-73
2022/03/14 00:22:04;;;;;;;1.43;1.10;;;11.50;93.00;;;;;;5041214;28;20463;-73
2022/03/14 00:24:31;;;;;;;1.50;1.07;;;11.60;92.90;;;;;;5045902;28;20466;-73
2022/03/14 00:26:59;;;;;;;1.50;1.10;;;11.50;93.40;;;;;;5045985;28;20471;-72
2022/03/14 00:29:28;;;;;;;1.40;1.00;;;11.50;92.30;;;;;;5043079;28;21233;-73
2022/03/14 00:31:55;;;;;;;1.50;1.00;;;11.50;94.80;;;;;;5046794;28;20497;-72
2022/03/14 00:34:21;;;;;;;1.50;1.10;;;11.50;94.90;;;;;;5039516;28;20491;-72
2022/03/14 00:36:49;;;;;;;1.43;1.00;;;11.50;94.90;;;;;;5046303;28;20986;-72
2022/03/14 00:39:16;;;;;;;1.50;1.10;;;11.50;94.80;;;;;;5043152;28;20482;-73
2022/03/14 00:41:43;;;;;;;1.47;1.10;;;11.40;95.00;;;;;;5046069;28;21197;-72
2022/03/14 00:44:11;;;;;;;1.43;1.10;;;11.40;94.40;;;;;;5048941;28;20458;-72
2022/03/14 00:46:39;;;;;;;1.50;1.10;;;11.40;94.10;;;;;;5048259;28;20457;-72
2022/03/14 00:49:05;;;;;;;1.47;1.00;;;11.40;95.20;;;;;;5046782;28;20486;-72
2022/03/14 00:51:34;;;;;;;1.47;1.00;;;11.40;95.20;;;;;;5048673;28;20458;-72
2022/03/14 00:54:03;;;;;;;1.40;1.10;;;11.40;95.40;;;;;;5048968;28;20552;-72
2022/03/14 00:56:30;;;;;;;1.47;1.00;;;11.40;95.40;;;;;;5048737;28;20459;-72
2022/03/14 00:58:59;;;;;;;1.47;1.10;;;11.40;95.70;;;;;;5045940;28;21024;-72
2022/03/14 01:01:26;;;;;;;1.50;1.10;;;11.40;95.60;;;;;;5048054;28;20469;-72
2022/03/14 01:03:53;;;;;;;1.47;1.10;;;11.30;96.80;;;;;;5044671;28;20828;-72
2022/03/14 01:06:20;;;;;;;1.43;1.10;;;11.30;96.30;;;;;;5030637;28;20986;-72
2022/03/14 01:08:47;;;;;;;1.43;1.00;;;11.30;96.10;;;;;;5039125;28;20478;-72
2022/03/14 01:11:15;;;;;;;1.43;1.10;;;11.30;95.80;;;;;;5045601;28;20478;-72
2022/03/14 01:13:44;;;;;;;1.43;1.00;;;11.30;96.00;;;;;;5048294;28;20462;-72
2022/03/14 01:16:11;;;;;;;1.43;1.00;;;11.30;95.80;;;;;;5048329;28;21078;-72
2022/03/14 01:18:37;;;;;;;1.70;1.60;;;11.30;96.60;;;;;;5046835;28;20481;-72
2022/03/14 01:21:04;;;;;;;1.50;1.10;;;11.30;96.30;;;;;;5038836;28;21108;-72
2022/03/14 01:23:31;;;;;;;1.47;1.00;;;11.30;96.50;;;;;;5044930;28;20466;-71
2022/03/14 01:25:57;;;;;;;1.47;1.10;;;11.30;96.90;;;;;;5047503;28;20462;-72
2022/03/14 01:28:25;;;;;;;1.50;1.00;;;11.30;97.90;;;;;;5039512;28;20491;-71
2022/03/14 01:30:52;;;;;;;1.47;1.10;;;11.20;98.10;;;;;;5041835;28;20836;-71
2022/03/14 01:33:19;;;;;;;1.43;1.10;;;11.20;97.90;;;;;;5045339;28;20466;-71
2022/03/14 01:35:45;;;;;;;1.47;1.10;;;11.20;98.20;;;;;;5036482;28;20982;-71
2022/03/14 01:38:13;;;;;;;1.50;1.10;;;11.20;98.20;;;;;;5039529;28;20498;-71
2022/03/14 01:40:40;;;;;;;1.47;1.10;;;11.10;98.20;;;;;;5042243;28;20471;-71
2022/03/14 01:43:06;;;;;;;1.43;1.10;;;11.10;98.20;;;;;;5049741;28;20864;-71
2022/03/14 01:45:35;;;;;;;1.50;1.10;;;11.10;98.20;;;;;;5045369;28;20470;-71
2022/03/14 01:48:02;;;;;;;1.50;1.10;;;11.10;98.20;;;;;;5049477;28;20494;-70
2022/03/14 01:50:28;;;;;;;1.47;1.03;;;11.10;98.20;;;;;;5045147;28;20470;-71
2022/03/14 01:52:55;;;;;;;1.43;1.00;;;11.00;98.20;;;;;;5049467;28;20465;-72
2022/03/14 01:55:22;;;;;;;1.43;1.10;;;11.00;98.20;;;;;;5050856;28;20485;-72
2022/03/14 01:57:49;;;;;;;1.50;1.10;;;10.90;98.20;;;;;;5051500;28;20482;-71
2022/03/14 02:00:16;;;;;;;1.50;1.10;;;10.90;98.20;;;;;;5051731;28;20472;-73
2022/03/14 02:02:44;;;;;;;1.77;1.57;;;10.90;98.20;;;;;;5046416;28;21016;-73
2022/03/14 02:05:11;;;;;;;1.50;1.10;;;10.90;98.20;;;;;;5045029;28;20454;-72
2022/03/14 02:07:38;;;;;;;1.50;1.10;;;10.80;98.20;;;;;;5049524;28;20565;-72
2022/03/14 02:10:06;;;;;;;1.50;1.10;;;10.80;98.20;;;;;;5052323;28;20462;-71
2022/03/14 02:12:32;;;;;;;1.47;1.10;;;10.70;98.20;;;;;;5049258;28;20458;-71
2022/03/14 02:14:59;;;;;;;1.47;1.07;;;10.70;98.20;;;;;;5051845;28;20576;-72
2022/03/14 02:17:26;;;;;;;1.50;1.10;;;10.70;98.20;;;;;;5050913;28;20462;-71
2022/03/14 02:19:54;;;;;;;1.47;1.00;;;10.60;98.20;;;;;;5049756;28;20466;-72
2022/03/14 02:22:22;;;;;;;1.43;1.07;;;10.60;98.20;;;;;;5047145;28;20466;-71
2022/03/14 02:24:49;;;;;;;1.47;1.00;;;10.60;98.20;;;;;;5051160;28;20846;-71
2022/03/14 02:27:18;;;;;;;1.60;1.37;;;10.50;98.20;;;;;;5038271;28;20976;-71
2022/03/14 02:29:45;;;;;;;1.50;1.10;;;10.50;98.20;;;;;;5035927;28;20584;-71
2022/03/14 02:32:13;;;;;;;1.50;1.10;;;10.40;98.20;;;;;;5043208;28;20458;-71
2022/03/14 02:34:40;;;;;;;1.50;1.10;;;10.30;98.20;;;;;;5034483;28;20885;-71
2022/03/14 02:37:07;;;;;;;1.47;1.10;;;10.30;98.20;;;;;;5041238;28;20491;-71
2022/03/14 02:39:37;;;;;;;1.50;1.10;;;10.30;98.20;;;;;;5044140;28;20477;-70
2022/03/14 02:42:05;;;;;;;1.50;1.37;;;10.30;98.20;;;;;;5045644;28;20970;-70
2022/03/14 02:44:32;;;;;;;1.50;1.00;;;10.30;98.20;;;;;;5044990;28;20823;-70
2022/03/14 02:46:59;;;;;;;1.50;1.10;;;10.20;98.20;;;;;;5051151;28;20520;-70
2022/03/14 02:49:26;;;;;;;1.47;1.03;;;10.20;98.20;;;;;;5049101;28;20492;-71
2022/03/14 02:51:52;;;;;;;1.43;1.17;;;10.20;98.20;;;;;;5050026;28;20462;-70
2022/03/14 02:54:19;;;;;;;1.43;1.10;;;10.20;98.20;;;;;;5050101;28;20886;-70
2022/03/14 02:56:47;;;;;;;1.50;1.10;;;10.10;98.20;;;;;;5050023;28;20818;-71
2022/03/14 02:59:14;;;;;;;1.50;1.10;;;10.10;98.20;;;;;;5050100;28;20485;-71
2022/03/14 03:01:41;;;;;;;1.50;1.10;;;10.10;98.20;;;;;;5048063;28;20473;-69
2022/03/14 03:04:08;;;;;;;1.47;1.10;;;10.10;98.20;;;;;;5045144;28;20950;-69
2022/03/14 03:06:35;;;;;;;1.50;1.10;;;10.10;98.20;;;;;;5045520;28;20458;-69
2022/03/14 03:09:03;;;;;;;1.50;1.10;;;10.10;98.20;;;;;;5048449;28;20966;-70
2022/03/14 03:11:31;;;;;;;1.47;1.10;;;10.10;98.20;;;;;;5048026;28;20534;-69
2022/03/14 03:14:00;;;;;;;1.50;1.10;;;10.10;98.20;;;;;;5050063;28;20553;-69
2022/03/14 03:16:27;;;;;;;1.50;1.10;;;10.10;98.20;;;;;;5049934;28;20790;-70
2022/03/14 03:18:54;;;;;;;1.50;1.10;;;10.10;98.20;;;;;;5047440;28;20482;-70
2022/03/14 03:21:21;;;;;;;1.50;1.10;;;10.10;98.20;;;;;;5035700;28;20466;-70
2022/03/14 03:23:48;;;;;;;1.47;1.10;;;10.00;98.20;;;;;;5050232;28;20466;-70
2022/03/14 03:26:15;;;;;;;1.50;1.10;;;10.00;98.20;;;;;;5049631;28;20808;-70
2022/03/14 03:28:42;;;;;;;1.50;1.10;;;10.00;98.20;;;;;;5049540;28;20495;-70
2022/03/14 03:31:11;;;;;;;1.50;1.10;;;10.00;98.20;;;;;;5048920;28;20836;-70
2022/03/14 03:33:39;;;;;;;1.50;1.07;;;10.00;98.20;;;;;;5049171;28;20813;-70
2022/03/14 03:36:07;;;;;;;1.50;1.10;;;9.90;98.20;;;;;;5027282;28;20483;-71
2022/03/14 03:38:35;;;;;;;1.50;1.07;;;9.90;98.20;;;;;;5049552;28;20493;-70
2022/03/14 03:41:02;;;;;;;1.50;1.10;;;9.90;98.20;;;;;;5044418;28;20470;-70
2022/03/14 03:43:29;;;;;;;1.50;1.10;;;9.90;98.20;;;;;;5047078;28;20470;-70
2022/03/14 03:45:55;;;;;;;1.50;1.10;;;9.90;98.20;;;;;;5048780;28;20466;-70
2022/03/14 03:51:01;;;;;;;1.50;1.10;;;9.90;98.20;;;;;;5089066;27;1284457;-75
2022/03/14 03:53:27;;;;;;;1.50;1.20;;;9.80;98.20;;;;;;5108056;27;20456;-75
2022/03/14 03:55:54;;;;;;;1.50;1.10;;;9.90;98.20;;;;;;5096656;28;20498;-74
2022/03/14 03:58:21;;;;;;;1.50;1.10;;;9.90;98.20;;;;;;5084433;28;20459;-76
2022/03/14 04:00:48;;;;;;;1.50;1.10;;;9.80;98.20;;;;;;5058701;28;20480;-75
2022/03/14 04:03:15;;;;;;;1.50;1.10;;;9.90;98.20;;;;;;5079250;28;21017;-73
2022/03/14 04:05:42;;;;;;;1.50;1.20;;;9.90;98.20;;;;;;5066131;28;20859;-74
2022/03/14 04:08:10;;;;;;;1.50;1.10;;;9.90;98.20;;;;;;5065509;28;20492;-76
2022/03/14 04:10:38;;;;;;;1.50;1.10;;;9.90;98.20;;;;;;5063172;28;20493;-76
2022/03/14 04:13:06;;;;;;;1.50;1.10;;;9.90;98.20;;;;;;5066158;28;20461;-75
2022/03/14 04:15:42;;;;;;;1.50;1.30;;;9.80;98.20;;;;;;5065765;28;20530;-74
2022/03/14 04:18:09;;;;;;;1.50;1.10;;;9.80;98.20;;;;;;5066115;28;20939;-75
2022/03/14 04:20:37;;;;;;;1.50;1.10;;;9.80;98.20;;;;;;5065403;28;20606;-74
2022/03/14 04:23:03;;;;;;;1.50;1.10;;;9.80;98.20;;;;;;5063663;28;20461;-73
2022/03/14 04:25:32;;;;;;;1.50;1.10;;;9.90;98.20;;;;;;5065357;28;20461;-73
2022/03/14 04:27:59;;;;;;;1.50;1.10;;;9.90;98.20;;;;;;5063730;28;20550;-74
2022/03/14 04:30:26;;;;;;;1.50;1.20;;;9.80;98.20;;;;;;5060508;28;20513;-74
2022/03/14 04:32:52;;;;;;;1.50;1.10;;;9.80;98.20;;;;;;5061524;28;20509;-74
2022/03/14 04:35:19;;;;;;;1.50;1.10;;;9.80;98.20;;;;;;5063263;28;20473;-74
2022/03/14 04:37:46;;;;;;;1.47;1.10;;;9.80;98.20;;;;;;5063242;28;20561;-75
2022/03/14 04:40:14;;;;;;;1.50;1.10;;;9.80;98.20;;;;;;5065388;28;20469;-76
2022/03/14 04:42:42;;;;;;;1.50;1.10;;;9.80;98.20;;;;;;5065277;28;20964;-74
2022/03/14 04:45:10;;;;;;;1.50;1.10;;;9.80;98.20;;;;;;5066036;28;20474;-74
2022/03/14 04:47:38;;;;;;;1.50;1.20;;;9.80;98.20;;;;;;5064866;28;20979;-74
2022/03/14 04:50:06;;;;;;;1.50;1.10;;;9.80;98.20;;;;;;5064989;28;20493;-75
2022/03/14 04:52:34;;;;;;;1.47;1.10;;;9.80;98.20;;;;;;5065472;28;20462;-74
2022/03/14 04:55:01;;;;;;;1.50;1.20;;;9.80;98.20;;;;;;5063837;28;20472;-74
2022/03/14 04:57:27;;;;;;;2.27;2.03;;;9.80;98.20;;;;;;5053297;28;21026;-75
2022/03/14 04:59:56;;;;;;;1.50;1.10;;;9.80;98.20;;;;;;5047045;28;20518;-74
2022/03/14 05:02:25;;;;;;;1.50;1.20;;;9.80;98.20;;;;;;5030453;28;20471;-74
2022/03/14 05:04:52;;;;;;;1.50;1.10;;;9.80;98.20;;;;;;5041389;28;20477;-77
2022/03/14 05:07:20;;;;;;;1.50;1.20;;;9.80;98.20;;;;;;5034661;28;20585;-74
2022/03/14 05:09:46;;;;;;;1.50;1.10;;;9.80;98.20;;;;;;5029116;28;20557;-74
2022/03/14 05:12:14;;;;;;;1.50;1.10;;;9.80;98.20;;;;;;5031415;28;20473;-73
2022/03/14 05:14:41;;;;;;;1.50;1.10;;;9.80;98.20;;;;;;5030767;28;20467;-76
2022/03/14 05:17:10;;;;;;;1.50;1.10;;;9.80;98.20;;;;;;5031086;28;20522;-75
2022/03/14 05:19:36;;;;;;;1.50;1.20;;;9.80;98.20;;;;;;5034330;28;20592;-76
2022/03/14 05:22:04;;;;;;;1.50;1.10;;;9.80;98.20;;;;;;5032851;28;20887;-75
2022/03/14 05:24:30;;;;;;;1.50;1.10;;;9.80;98.20;;;;;;5031100;28;20469;-76
2022/03/14 05:26:58;;;;;;;1.50;1.20;;;9.80;98.20;;;;;;5030818;28;20471;-72
2022/03/14 05:29:24;;;;;;;1.50;1.10;;;9.80;98.20;;;;;;5027541;28;20877;-73
2022/03/14 05:31:51;;;;;;;1.50;1.10;;;9.80;98.20;;;;;;5039168;28;20465;-72
2022/03/14 05:34:20;;;;;;;1.50;1.10;;;9.80;98.20;;;;;;5033518;28;20955;-72
2022/03/14 05:36:47;;;;;;;1.50;1.20;;;9.80;98.20;;;;;;5039494;28;20668;-73
2022/03/14 05:39:13;;;;;;;1.50;1.10;;;9.80;98.20;;;;;;5029673;28;20682;-73
2022/03/14 05:41:40;;;;;;;1.50;1.20;;;9.80;98.20;;;;;;5026819;28;20459;-73
2022/03/14 05:44:07;;;;;;;1.50;1.10;;;9.80;98.20;;;;;;5029452;28;20521;-73
2022/03/14 05:46:34;;;;;;;1.50;1.10;;;9.70;98.20;;;;;;5028790;28;20460;-73
2022/03/14 05:49:01;;;;;;;1.50;1.17;;;9.70;98.20;;;;;;5029551;28;20479;-72
2022/03/14 05:51:29;;;;;;;1.50;1.10;;;9.70;98.20;;;;;;5031482;28;20858;-72
2022/03/14 05:53:56;;;;;;;1.50;1.20;;;9.70;98.20;;;;;;5034205;28;20792;-73
2022/03/14 05:56:23;;;;;;;1.50;1.20;;;9.60;98.20;;;;;;5036460;28;20462;-73
2022/03/14 05:58:50;;;;;;;1.50;1.20;;;9.60;98.20;;;;;;5022096;28;20490;-73
2022/03/14 06:01:16;;;;;;;1.50;1.10;;;9.70;98.20;;;;;;5026913;28;20451;-73
2022/03/14 06:03:43;;;;;;;1.50;1.10;;;9.60;98.20;;;;;;5034237;28;20458;-73
2022/03/14 06:06:10;;;;;;;1.50;1.20;;;9.70;98.20;;;;;;5036622;28;20467;-73
2022/03/14 06:08:38;;;;;;;1.50;1.20;;;9.70;98.20;;;;;;5028076;28;20470;-73
2022/03/14 06:11:07;;;;;;;1.50;1.10;;;9.70;98.20;;;;;;5026932;28;21014;-73
2022/03/14 06:13:34;;;;;;;1.50;1.10;;;9.70;98.20;;;;;;5026970;28;20919;-73
2022/03/14 06:16:02;;;;;;;1.50;1.10;;;9.70;98.20;;;;;;5027748;28;20462;-72
2022/03/14 06:18:29;;;;;;;1.50;1.10;;;9.70;98.20;;;;;;5028903;28;20594;-73
2022/03/14 06:20:56;;;;;;;1.50;1.10;;;9.70;98.20;;;;;;5025751;28;20517;-73
2022/03/14 06:23:23;;;;;;;1.50;1.10;;;9.70;98.20;;;;;;5028282;28;20973;-73
2022/03/14 06:25:54;;;;;;;1.50;1.20;;;9.70;98.20;;;;;;5031992;28;20987;-74
2022/03/14 06:28:21;;;;;;;1.50;1.10;;;9.70;98.20;;;;;;5027918;28;20486;-73
2022/03/14 06:30:48;;;;;;;1.47;1.00;;;9.70;98.20;;;;;;5025443;28;20884;-73
2022/03/14 06:33:14;;;;;;;1.50;1.10;;;9.70;98.20;;;;;;5027417;28;20455;-73
2022/03/14 06:35:42;;;;;;;1.50;1.20;;;9.60;98.20;;;;;;5034131;28;20462;-73
2022/03/14 06:38:11;;;;;;;1.50;1.10;;;9.60;98.20;;;;;;5033506;28;20504;-72
2022/03/14 06:40:38;;;;;;;1.50;1.10;;;9.70;98.20;;;;;;5027374;28;20479;-72
2022/03/14 06:43:06;;;;;;;1.50;1.07;;;9.60;98.20;;;;;;5026148;28;20826;-73
2022/03/14 06:45:33;;;;;;;1.50;1.20;;;9.60;98.20;;;;;;5026612;28;20466;-74
2022/03/14 06:48:00;;;;;;;1.50;1.10;;;9.60;98.20;;;;;;5028464;28;20467;-73
2022/03/14 06:50:27;;;;;;;1.50;1.20;;;9.60;98.20;;;;;;5025879;28;20483;-73
2022/03/14 06:52:54;;;;;;;1.50;1.10;;;9.70;98.20;;;;;;5032072;28;20498;-72
2022/03/14 06:55:21;;;;;;;1.50;1.17;;;9.70;98.20;;;;;;5028414;28;20470;-74
2022/03/14 06:57:48;;;;;;;1.50;1.20;;;9.70;98.20;;;;;;5027437;28;20460;-74
2022/03/14 07:00:18;;;;;;;1.50;1.10;;;9.70;98.20;;;;;;5027429;28;20716;-72
2022/03/14 07:02:44;;;;;;;1.50;1.20;;;9.80;98.20;;;;;;5026703;28;20459;-73
2022/03/14 07:05:13;;;;;;;1.50;1.10;;;9.80;98.20;;;;;;5039057;28;20468;-72
2022/03/14 07:07:40;;;;;;;1.50;1.10;;;9.80;98.20;;;;;;5030723;28;20477;-74
2022/03/14 07:10:08;;;;;;;1.50;1.20;;;9.80;98.20;;;;;;5025993;28;20487;-72
2022/03/14 07:12:39;;;;;;;1.50;1.10;;;9.90;98.20;;;;;;5027848;28;20566;-72
2022/03/14 07:15:06;;;;;;;1.50;1.20;;;9.90;98.20;;;;;;5027713;28;20489;-73
2022/03/14 07:17:34;;;;;;;1.50;1.10;;;9.90;98.20;;;;;;5030480;28;20486;-74
2022/03/14 07:20:01;;;;;;;1.50;1.17;;;9.90;98.20;;;;;;5028069;28;20823;-73
2022/03/14 07:22:28;;;;;;;1.50;1.10;;;10.00;98.20;;;;;;5026428;28;20487;-72
2022/03/14 07:24:55;;;;;;;1.50;1.10;;;10.00;98.20;;;;;;5027369;28;20573;-74
2022/03/14 07:27:22;;;;;;;1.40;1.10;;;10.00;98.20;;;;;;5027540;28;20752;-74
2022/03/14 07:29:48;;;;;;;1.50;1.20;;;10.00;98.20;;;;;;5025928;28;20479;-74
2022/03/14 07:32:15;;;;;;;1.50;1.20;;;10.00;98.20;;;;;;5027463;28;20478;-74
2022/03/14 07:34:43;;;;;;;1.50;1.00;;;10.10;98.20;;;;;;5030965;28;20936;-74
2022/03/14 07:37:10;;;;;;;1.50;1.10;;;10.10;98.20;;;;;;5029531;28;20473;-73
2022/03/14 07:39:37;;;;;;;1.43;1.00;;;10.10;98.20;;;;;;5026892;28;20537;-74
2022/03/14 07:42:05;;;;;;;1.50;1.10;;;10.10;98.20;;;;;;5026278;28;20487;-73
2022/03/14 07:44:31;;;;;;;1.50;1.20;;;10.20;98.20;;;;;;5027837;28;20837;-74
2022/03/14 07:46:58;;;;;;;1.50;1.10;;;10.20;98.20;;;;;;5026960;28;20468;-73
2022/03/14 07:49:27;;;;;;;1.50;1.10;;;10.30;98.20;;;;;;5025797;28;20822;-74
2022/03/14 07:51:55;;;;;;;1.50;1.10;;;10.30;98.20;;;;;;5027301;28;20518;-73
2022/03/14 07:54:22;;;;;;;1.50;1.20;;;10.40;98.20;;;;;;5025520;28;20562;-73
2022/03/14 07:56:48;;;;;;;1.50;1.20;;;10.40;98.20;;;;;;5026528;28;20471;-75
2022/03/14 07:59:15;;;;;;;1.47;1.03;;;10.40;98.20;;;;;;5026687;28;20491;-74
2022/03/14 08:01:42;;;;;;;1.50;1.10;;;10.50;98.20;;;;;;5025136;28;20463;-74
2022/03/14 08:04:09;;;;;;;1.40;1.00;;;10.50;98.20;;;;;;5028303;28;20460;-74
2022/03/14 08:06:41;;;;;;;1.50;1.10;;;10.60;98.20;;;;;;5040960;28;20910;-74
2022/03/14 08:09:09;;;;;;;1.50;1.00;;;10.70;98.20;;;;;;5027546;28;21129;-74
2022/03/14 08:11:38;;;;;;;1.50;1.00;;;10.70;98.20;;;;;;5025230;28;20483;-73
2022/03/14 08:14:05;;;;;;;1.50;1.10;;;10.70;98.20;;;;;;5027344;28;20506;-74
2022/03/14 08:16:32;;;;;;;1.50;1.00;;;10.80;98.20;;;;;;5027619;28;20465;-73
2022/03/14 08:18:59;;;;;;;1.50;1.10;;;10.80;98.20;;;;;;5027240;28;20479;-73
2022/03/14 08:21:26;;;;;;;1.50;1.10;;;10.90;98.20;;;;;;5024962;28;20462;-74
2022/03/14 08:23:52;;;;;;;1.50;1.07;;;10.90;98.20;;;;;;5026300;28;20466;-74
2022/03/14 08:26:21;;;;;;;1.50;1.10;;;11.00;98.20;;;;;;5026322;28;20470;-74
2022/03/14 08:28:48;;;;;;;1.50;1.10;;;11.00;98.20;;;;;;5028147;28;20489;-73
2022/03/14 08:31:18;;;;;;;1.50;1.00;;;11.10;98.20;;;;;;5031469;28;20490;-73
2022/03/14 08:33:45;;;;;;;1.50;1.03;;;11.20;98.20;;;;;;5032498;28;20470;-73
2022/03/14 08:36:11;;;;;;;1.50;1.00;;;11.30;98.20;;;;;;5033842;28;20521;-74
2022/03/14 08:38:40;;;;;;;1.50;1.00;;;11.40;98.20;;;;;;5030137;28;20544;-74
2022/03/14 08:41:07;;;;;;;1.50;1.10;;;11.50;98.20;;;;;;5028247;28;21022;-73
2022/03/14 08:43:35;;;;;;;1.50;1.00;;;11.60;98.20;;;;;;5030429;28;20478;-73
2022/03/14 08:46:02;;;;;;;1.50;1.03;;;11.70;98.20;;;;;;5026382;28;20573;-73
2022/03/14 08:48:30;;;;;;;1.50;1.00;;;11.80;98.20;;;;;;5022770;28;20955;-73
2022/03/14 08:50:56;;;;;;;1.50;1.00;;;12.00;98.20;;;;;;5019642;28;20487;-73
2022/03/14 08:53:23;;;;;;;1.50;1.00;;;12.00;98.20;;;;;;5027940;28;20452;-74
2022/03/14 08:55:51;;;;;;;1.47;1.00;;;12.00;98.20;;;;;;5030730;28;20467;-75
2022/03/14 08:58:18;;;;;;;1.50;1.00;;;12.00;98.20;;;;;;5024857;28;20459;-74
2022/03/14 09:00:46;;;;;;;1.50;0.97;;;12.00;98.20;;;;;;5028930;28;20475;-73
2022/03/14 09:03:13;;;;;;;1.47;1.00;;;12.00;98.20;;;;;;5030016;28;20465;-74
2022/03/14 09:05:40;;;;;;;1.50;0.97;;;12.00;98.20;;;;;;5042962;28;20461;-73
2022/03/14 09:08:07;;;;;;;1.50;1.00;;;12.00;98.20;;;;;;5031560;28;20459;-73
2022/03/14 09:10:36;;;;;;;1.50;1.00;;;11.90;98.20;;;;;;5028471;28;20495;-73
2022/03/14 09:13:04;;;;;;;1.50;0.90;;;11.90;98.20;;;;;;5030413;28;21058;-74
2022/03/14 09:15:31;;;;;;;1.50;1.00;;;11.80;98.20;;;;;;5030576;28;20474;-74
2022/03/14 09:18:01;;;;;;;1.50;1.00;;;11.90;98.20;;;;;;5030413;28;20836;-73
2022/03/14 09:20:30;;;;;;;1.50;1.00;;;12.00;98.20;;;;;;5027615;28;20541;-73
2022/03/14 09:22:57;;;;;;;1.50;1.00;;;12.00;98.20;;;;;;5029183;28;20459;-74
2022/03/14 09:25:24;;;;;;;1.50;1.00;;;12.10;98.20;;;;;;5029519;28;20467;-75
2022/03/14 09:27:52;;;;;;;1.47;1.00;;;12.20;98.20;;;;;;5029740;28;20545;-74
2022/03/14 09:30:20;;;;;;;1.50;1.00;;;12.20;98.20;;;;;;5027981;28;20479;-75
2022/03/14 09:32:48;;;;;;;1.50;1.00;;;12.30;98.20;;;;;;5032646;28;20612;-74
2022/03/14 09:35:16;;;;;;;1.50;1.00;;;12.20;98.20;;;;;;5033498;28;20504;-73
2022/03/14 09:37:44;;;;;;;1.47;0.97;;;12.20;98.20;;;;;;5030548;28;20977;-73
2022/03/14 09:40:13;;;;;;;1.47;1.00;;;12.20;98.20;;;;;;5028341;28;20574;-74
2022/03/14 09:42:42;;;;;;;1.50;1.00;;;12.20;98.20;;;;;;5029440;28;20466;-74
2022/03/14 09:45:10;;;;;;;1.50;1.00;;;12.20;98.20;;;;;;5029879;28;20456;-73
2022/03/14 09:47:39;;;;;;;1.50;1.00;;;12.10;98.20;;;;;;5029033;28;20475;-74
2022/03/14 09:50:08;;;;;;;1.50;1.10;;;12.10;98.20;;;;;;5027515;28;20498;-74
2022/03/14 09:52:39;;;;;;;1.50;1.00;;;12.20;98.20;;;;;;5030181;28;20527;-73
2022/03/14 09:55:07;;;;;;;1.50;1.00;;;12.20;98.20;;;;;;5050540;22;20495;-73
2022/03/14 09:57:37;;;;;;;1.50;1.00;;;12.10;98.20;;;;;;5045419;28;20458;-72
2022/03/14 10:00:04;;;;;;;1.50;1.00;;;12.20;98.20;;;;;;5044456;28;20469;-75
2022/03/14 10:02:31;;;;;;;1.50;1.00;;;12.20;98.20;;;;;;5045769;28;20454;-75
2022/03/14 10:04:58;;;;;;;4.03;3.67;;;12.30;98.20;;;;;;5045322;28;20479;-72
2022/03/14 10:07:25;;;;;;;1.50;1.00;;;12.40;98.20;;;;;;5029532;28;20491;-73
2022/03/14 10:09:56;;;;;;;1.50;1.00;;;12.60;97.90;;;;;;5028876;28;20459;-72
2022/03/14 10:12:23;;;;;;;1.50;1.10;;;12.70;97.90;;;;;;5028924;28;20487;-73
2022/03/14 10:14:51;;;;;;;1.50;1.00;;;12.80;97.10;;;;;;5029322;28;20483;-73
2022/03/14 10:17:18;;;;;;;1.50;1.00;;;12.90;96.90;;;;;;5028232;28;20470;-72
2022/03/14 10:19:54;;;;;;;1.50;1.00;;;13.10;97.30;;;;;;5029268;28;20471;-72
2022/03/14 10:22:21;;;;;;;1.50;0.97;;;13.30;96.40;;;;;;5028560;28;20487;-72
2022/03/14 10:24:53;;;;;;;1.50;1.00;;;13.30;95.50;;;;;;5029623;28;20501;-72
2022/03/14 10:27:22;;;;;;;1.50;1.00;;;13.30;95.40;;;;;;5028931;28;20833;-73
2022/03/14 10:29:50;;;;;;;1.50;1.00;;;13.20;95.20;;;;;;5028890;28;20483;-73
2022/03/14 10:32:29;;;;;;;1.50;1.00;;;13.20;96.20;;;;;;5029527;28;20486;-73
2022/03/14 10:34:58;;;;;;;1.47;1.00;;;13.10;96.00;;;;;;5028660;28;20487;-76
2022/03/14 10:37:27;;;;;;;1.50;1.00;;;13.00;95.50;;;;;;5019580;28;20498;-74
2022/03/14 10:39:58;;;;;;;1.50;1.00;;;12.90;95.00;;;;;;5029797;28;20553;-77
2022/03/14 10:42:26;;;;;;;1.50;1.00;;;12.80;95.40;;;;;;5029780;28;20456;-73
2022/03/14 10:44:54;;;;;;;1.50;1.10;;;12.70;95.20;;;;;;5030371;28;20491;-73
2022/03/14 10:47:24;;;;;;;1.50;1.00;;;12.70;95.40;;;;;;5030283;28;20463;-74
2022/03/14 10:49:51;;;;;;;1.50;0.90;;;12.70;95.70;;;;;;5029120;28;20474;-75
2022/03/14 10:52:20;;;;;;;1.50;0.90;;;12.60;95.60;;;;;;5028947;28;20487;-73
2022/03/14 10:54:47;;;;;;;1.50;1.00;;;12.60;95.60;;;;;;5029166;28;20467;-73
2022/03/14 10:57:17;;;;;;;1.40;1.00;;;12.70;95.50;;;;;;5030336;28;20467;-74
2022/03/14 10:59:47;;;;;;;1.50;1.00;;;12.70;96.20;;;;;;5026365;28;20918;-77
2022/03/14 11:02:17;;;;;;;1.47;0.90;;;12.70;95.50;;;;;;5025427;28;20959;-75
2022/03/14 11:04:46;;;;;;;2.27;1.50;;;12.70;96.50;;;;;;5028460;28;20459;-76
2022/03/14 11:07:14;;;;;;;1.50;1.00;;;12.70;95.80;;;;;;5026102;28;20542;-74
2022/03/14 11:09:46;;;;;;;1.47;1.00;;;12.70;96.10;;;;;;5029642;28;20467;-74
2022/03/14 11:12:15;;;;;;;1.50;1.10;;;12.80;96.10;;;;;;5029744;28;20487;-76
2022/03/14 11:14:43;;;;;;;1.47;1.03;;;12.90;95.40;;;;;;5028918;28;20972;-77
2022/03/14 11:17:17;;;;;;;1.50;1.00;;;12.90;95.20;;;;;;5028647;28;20474;-77
2022/03/14 11:19:44;;;;;;;1.50;1.00;;;13.00;95.40;;;;;;5029326;28;20469;-79
2022/03/14 11:22:12;;;;;;;1.50;1.00;;;13.00;94.70;;;;;;5028859;28;20459;-75
2022/03/14 11:24:42;;;;;;;1.47;1.00;;;13.10;94.10;;;;;;5029137;28;20467;-77
2022/03/14 11:27:14;;;;;;;1.50;1.00;;;13.10;94.20;;;;;;5028428;28;20525;-73
2022/03/14 11:29:42;;;;;;;1.50;1.00;;;13.10;93.50;;;;;;5027638;28;20465;-76
2022/03/14 11:32:10;;;;;;;1.50;1.00;;;13.10;93.00;;;;;;5028069;28;20804;-77
2022/03/14 11:34:39;;;;;;;1.50;1.00;;;13.20;92.40;;;;;;5028211;28;20491;-74
2022/03/14 11:37:06;;;;;;;1.50;1.00;;;13.20;92.60;;;;;;5027991;28;20472;-74
2022/03/14 11:39:34;;;;;;;1.50;1.00;;;13.30;92.40;;;;;;5029773;28;20463;-76
2022/03/14 11:42:01;;;;;;;1.50;1.00;;;13.30;92.60;;;;;;5028831;28;20491;-77
2022/03/14 11:44:28;;;;;;;1.50;1.00;;;13.30;92.00;;;;;;5029485;28;20474;-77
2022/03/14 11:46:56;;;;;;;1.50;0.90;;;13.30;92.00;;;;;;5031112;28;20530;-76
2022/03/14 11:49:27;;;;;;;2.50;2.30;;;13.30;91.60;;;;;;5028875;28;20455;-75
2022/03/14 11:52:09;;;;;;;1.50;1.00;;;13.20;91.10;;;;;;5028846;28;20513;-76
2022/03/14 11:54:38;;;;;;;1.50;1.00;;;13.20;91.00;;;;;;5022352;28;20504;-76
2022/03/14 11:57:06;;;;;;;1.50;1.10;;;13.20;91.70;;;;;;5030181;28;20475;-76
2022/03/14 11:59:35;;;;;;;1.50;1.00;;;13.20;91.60;;;;;;5027915;28;20521;-72
2022/03/14 12:02:05;;;;;;;1.43;1.00;;;13.30;91.10;;;;;;5028216;28;20459;-71
2022/03/14 12:04:34;;;;;;;1.50;1.00;;;13.30;91.00;;;;;;5027733;28;20993;-74
2022/03/14 12:07:10;;;;;;;1.50;1.10;;;13.30;90.40;;;;;;5026860;28;20463;-74
2022/03/14 12:09:45;;;;;;;1.50;1.10;;;13.30;90.20;;;;;;5025748;28;20462;-74
2022/03/14 12:12:50;;;;;;;1.50;1.00;;;13.30;90.80;;;;;;5029705;28;20486;-74
2022/03/14 12:15:42;;;;;;;1.50;0.90;;;13.40;90.70;;;;;;5031347;28;20544;-74
2022/03/14 12:18:29;;;;;;;1.50;1.00;;;13.40;90.30;;;;;;5031711;28;20924;-74
2022/03/14 12:20:59;;;;;;;1.50;1.00;;;13.40;90.20;;;;;;5030764;28;20482;-74
2022/03/14 12:23:28;;;;;;;1.43;1.00;;;13.40;90.20;;;;;;5031105;28;20474;-73
2022/03/14 12:25:55;;;;;;;1.43;1.00;;;13.50;90.20;;;;;;5031499;28;20554;-74
2022/03/14 12:28:31;;;;;;;1.50;1.00;;;13.50;90.20;;;;;;5031162;28;20455;-74
2022/03/14 12:31:00;;;;;;;1.50;0.93;;;13.50;90.20;;;;;;5031258;28;20501;-74
2022/03/14 12:33:31;;;;;;;1.50;0.90;;;13.50;89.80;;;;;;5027670;28;21047;-74
2022/03/14 12:35:58;;;;;;;1.50;1.00;;;13.60;89.90;;;;;;5028497;28;20483;-74
2022/03/14 12:38:25;;;;;;;1.50;1.00;;;13.50;89.70;;;;;;5028795;28;20502;-74
2022/03/14 12:40:56;;;;;;;1.50;1.00;;;13.50;89.90;;;;;;5029531;28;20467;-74
2022/03/14 12:43:25;;;;;;;1.50;1.00;;;13.50;89.80;;;;;;5028332;28;20455;-74
2022/03/14 12:45:54;;;;;;;1.47;0.93;;;13.50;90.00;;;;;;5028196;28;20490;-74
2022/03/14 12:48:25;;;;;;;1.47;1.00;;;13.50;90.70;;;;;;5027761;28;20525;-74
2022/03/14 12:51:03;;;;;;;1.50;1.00;;;13.50;90.20;;;;;;5028681;28;20865;-74
2022/03/14 12:53:44;;;;;;;1.50;1.00;;;13.60;89.70;;;;;;5028741;28;20783;-74
2022/03/14 12:56:17;;;;;;;1.50;1.00;;;13.70;89.90;;;;;;5028477;28;20487;-74
2022/03/14 12:58:59;;;;;;;1.50;0.90;;;13.80;88.70;;;;;;5023567;28;20529;-74